Time;durP1;ratioP1;P1;durP2;ratioP2;P2;SDS_P1;SDS_P2;PMS_P1;PMS_P2;Temp;Humidity;BMP_temperature;BMP_pressure;BME280_temperature;BME280_humidity;BME280_pressure;Samples;Min_cycle;Max_cycle;Signal;HPM_P1;HPM_P2
2022/07/25 00:00:03;;;;;;;8.68;7.78;;;;;;;20.71;66.46;100154.69;1738904;82;21232;-58
2022/07/25 00:03:11;;;;;;;10.72;7.95;;;;;;;20.71;66.58;100152.44;1730450;81;21201;-58
2022/07/25 00:06:20;;;;;;;9.15;7.62;;;;;;;20.72;66.70;100156.93;1734980;81;21189;-55
2022/07/25 00:09:28;;;;;;;10.55;7.85;;;;;;;20.73;66.71;100162.78;1704768;83;21245;-57
2022/07/25 00:12:34;;;;;;;10.35;8.25;;;;;;;20.71;66.79;100178.33;1692169;80;21244;-56
2022/07/25 00:15:41;;;;;;;10.45;9.45;;;;;;;20.71;66.84;100158.86;1730894;81;21201;-57
2022/07/25 00:18:47;;;;;;;10.63;9.60;;;;;;;20.66;66.89;100150.41;1737214;81;21221;-56
2022/07/25 00:21:54;;;;;;;11.63;9.85;;;;;;;20.64;66.96;100155.36;1731776;81;21211;-55
2022/07/25 00:25:00;;;;;;;10.78;9.78;;;;;;;20.63;67.07;100173.16;1739918;81;21201;-57
2022/07/25 00:28:06;;;;;;;12.18;10.53;;;;;;;20.64;67.18;100164.27;1733258;81;21288;-57
2022/07/25 00:31:15;;;;;;;11.43;10.25;;;;;;;20.64;67.27;100161.48;1730707;81;21197;-57
2022/07/25 00:34:20;;;;;;;12.40;10.75;;;;;;;20.63;67.36;100151.44;1740228;81;21260;-58
2022/07/25 00:37:26;;;;;;;12.47;10.13;;;;;;;20.63;67.42;100158.39;1732763;80;21227;-57
2022/07/25 00:40:32;;;;;;;11.53;10.30;;;;;;;20.64;67.52;100158.70;1734644;82;21316;-58
2022/07/25 00:43:40;;;;;;;12.05;10.65;;;;;;;20.65;67.60;100159.00;1731966;82;21225;-57
2022/07/25 00:46:46;;;;;;;15.90;11.48;;;;;;;20.65;67.63;100159.00;1732546;81;21350;-56
2022/07/25 00:49:53;;;;;;;16.52;10.43;;;;;;;20.65;67.67;100154.82;1739357;82;21216;-56
2022/07/25 00:53:00;;;;;;;12.73;10.88;;;;;;;20.64;67.74;100153.14;1739189;81;21193;-56
2022/07/25 00:56:07;;;;;;;12.37;10.90;;;;;;;20.62;67.81;100154.78;1734799;81;21292;-56
2022/07/25 00:59:15;;;;;;;11.63;10.50;;;;;;;20.59;67.88;100152.50;1732402;82;21325;-57
2022/07/25 01:02:24;;;;;;;16.77;11.08;;;;;;;20.57;67.98;100150.50;1725948;81;21245;-56
2022/07/25 01:05:29;;;;;;;11.57;10.28;;;;;;;20.55;67.99;100154.63;1733878;81;21236;-56
2022/07/25 01:08:35;;;;;;;11.68;10.48;;;;;;;20.53;68.07;100165.97;1729889;81;21213;-56
2022/07/25 01:11:43;;;;;;;11.43;10.20;;;;;;;20.52;68.20;100170.39;1738082;81;21201;-56
2022/07/25 01:14:48;;;;;;;11.30;10.20;;;;;;;20.51;68.29;100163.15;1731727;83;21194;-57
2022/07/25 01:17:57;;;;;;;11.57;10.48;;;;;;;20.51;68.36;100170.96;1723070;81;21236;-57
2022/07/25 01:21:04;;;;;;;12.82;11.15;;;;;;;20.50;68.41;100178.98;1728713;82;21189;-56
2022/07/25 01:24:13;;;;;;;14.00;11.30;;;;;;;20.48;68.50;100175.63;1733028;81;21267;-57
2022/07/25 01:27:18;;;;;;;11.65;9.88;;;;;;;20.48;68.50;100183.11;1720777;81;21213;-56
2022/07/25 01:30:26;;;;;;;12.73;9.60;;;;;;;20.47;68.62;100189.78;1725883;82;21272;-55
2022/07/25 01:33:31;;;;;;;11.30;9.65;;;;;;;20.46;68.66;100171.38;1732724;80;21272;-56
2022/07/25 01:36:38;;;;;;;13.40;9.43;;;;;;;20.45;68.73;100173.34;1737697;81;21283;-57
2022/07/25 01:39:44;;;;;;;12.18;10.13;;;;;;;20.46;68.80;100175.55;1732073;80;21193;-58
2022/07/25 01:42:50;;;;;;;10.80;9.68;;;;;;;20.44;68.84;100173.55;1736915;81;21224;-56
2022/07/25 01:45:56;;;;;;;10.08;9.05;;;;;;;20.42;68.90;100168.80;1742185;82;21181;-57
2022/07/25 01:49:03;;;;;;;13.05;9.40;;;;;;;20.38;68.98;100178.17;1740543;82;21327;-55
2022/07/25 01:52:09;;;;;;;11.48;9.43;;;;;;;20.35;69.02;100170.32;1726024;81;21193;-58
2022/07/25 01:55:16;;;;;;;9.73;8.73;;;;;;;20.32;69.10;100175.52;1728357;80;21221;-56
2022/07/25 01:58:23;;;;;;;13.10;10.53;;;;;;;20.30;69.21;100174.91;1731667;81;21305;-56
2022/07/25 02:01:29;;;;;;;10.60;9.48;;;;;;;20.26;69.27;100179.28;1731720;80;21244;-57
2022/07/25 02:04:36;;;;;;;10.98;9.50;;;;;;;20.23;69.34;100181.16;1733490;82;21193;-57
2022/07/25 02:07:43;;;;;;;10.35;9.35;;;;;;;20.19;69.39;100184.11;1732020;81;21217;-57
2022/07/25 02:10:50;;;;;;;11.93;9.18;;;;;;;20.16;69.51;100182.67;1731507;82;21248;-58
2022/07/25 02:13:55;;;;;;;13.05;9.08;;;;;;;20.15;69.62;100182.35;1735582;80;21289;-56
2022/07/25 02:17:02;;;;;;;9.68;8.68;;;;;;;20.12;69.65;100182.81;1729813;81;21216;-57
2022/07/25 02:20:11;;;;;;;13.08;8.90;;;;;;;20.08;69.71;100183.00;1732866;81;21212;-56
2022/07/25 02:23:19;;;;;;;13.53;9.40;;;;;;;20.04;69.74;100175.40;1732819;81;21281;-57
2022/07/25 02:26:25;;;;;;;10.85;8.40;;;;;;;20.02;69.83;100174.78;1732807;81;21269;-57
2022/07/25 02:29:32;;;;;;;11.20;8.08;;;;;;;20.01;69.90;100181.45;1730881;82;21205;-56
2022/07/25 02:32:38;;;;;;;10.20;8.63;;;;;;;19.99;69.98;100178.91;1733225;81;21333;-57
2022/07/25 02:35:44;;;;;;;9.30;8.18;;;;;;;19.98;70.05;100179.98;1734830;80;21212;-56
2022/07/25 02:38:51;;;;;;;11.18;8.93;;;;;;;19.96;70.10;100174.38;1713612;81;21192;-56
2022/07/25 02:41:58;;;;;;;9.53;8.03;;;;;;;19.92;70.18;100178.70;1719133;81;21193;-55
2022/07/25 02:45:06;;;;;;;10.25;8.55;;;;;;;19.87;70.26;100173.05;1743291;81;21196;-56
2022/07/25 02:48:13;;;;;;;9.90;8.68;;;;;;;19.84;70.33;100177.67;1737777;81;21248;-57
2022/07/25 02:51:21;;;;;;;10.32;8.55;;;;;;;19.83;70.45;100177.38;1734882;81;21228;-56
2022/07/25 02:54:28;;;;;;;12.55;9.05;;;;;;;19.82;70.47;100181.25;1742215;82;21196;-57
2022/07/25 02:57:34;;;;;;;10.98;8.73;;;;;;;19.76;70.52;100175.25;1742217;81;21224;-56
2022/07/25 03:00:40;;;;;;;11.00;8.48;;;;;;;19.72;70.60;100186.55;1737102;81;21208;-57
2022/07/25 03:03:47;;;;;;;11.83;9.13;;;;;;;19.68;70.72;100181.19;1728436;82;21351;-56
2022/07/25 03:06:54;;;;;;;10.15;9.10;;;;;;;19.66;70.81;100181.43;1730505;79;21272;-58
2022/07/25 03:10:02;;;;;;;11.90;9.25;;;;;;;19.62;70.89;100176.56;1727900;81;21217;-56
2022/07/25 03:13:09;;;;;;;11.03;8.33;;;;;;;19.60;71.00;100182.92;1678952;84;21242;-56
2022/07/25 03:16:17;;;;;;;9.80;7.92;;;;;;;19.58;71.08;100173.97;1737572;81;21213;-55
2022/07/25 03:19:24;;;;;;;12.65;9.60;;;;;;;19.54;71.17;100175.52;1742206;82;21244;-59
2022/07/25 03:22:30;;;;;;;11.68;8.50;;;;;;;19.50;71.21;100169.63;1728138;81;21213;-55
2022/07/25 03:25:39;;;;;;;10.15;7.95;;;;;;;19.47;71.32;100159.00;1731782;81;21350;-59
2022/07/25 03:28:54;;;;;;;8.28;7.25;;;;;;;19.47;71.41;100163.70;1736957;82;21205;-58
2022/07/25 03:32:06;;;;;;;9.25;7.33;;;;;;;19.46;71.45;100157.29;1737004;81;21196;-59
2022/07/25 03:35:16;;;;;;;11.03;7.72;;;;;;;19.46;71.54;100145.33;1742248;82;21172;-58
2022/07/25 03:38:23;;;;;;;9.25;6.85;;;;;;;19.45;71.55;100151.98;1720308;82;21411;-57
2022/07/25 03:41:31;;;;;;;11.85;7.70;;;;;;;19.44;71.62;100160.02;1727041;81;21189;-56
2022/07/25 03:44:38;;;;;;;9.78;7.35;;;;;;;19.42;71.68;100148.29;1735620;82;21256;-58
2022/07/25 03:47:49;;;;;;;8.65;7.33;;;;;;;19.38;71.71;100138.20;1742224;81;21224;-57
2022/07/25 03:50:58;;;;;;;8.63;7.75;;;;;;;19.34;71.77;100140.59;1735101;82;21220;-59
2022/07/25 03:54:05;;;;;;;9.48;7.92;;;;;;;19.33;71.87;100135.84;1737695;82;21792;-59
2022/07/25 03:57:12;;;;;;;10.43;7.25;;;;;;;19.32;71.93;100129.44;1734386;81;21331;-57
2022/07/25 04:00:20;;;;;;;8.50;7.42;;;;;;;19.30;71.93;100126.91;1727408;82;21221;-57
2022/07/25 04:03:28;;;;;;;9.53;7.75;;;;;;;19.28;72.03;100122.69;1732810;82;21240;-59
2022/07/25 04:06:35;;;;;;;10.35;7.95;;;;;;;19.30;72.16;100122.74;1725169;82;21178;-58
2022/07/25 04:09:43;;;;;;;11.45;7.62;;;;;;;19.31;72.16;100121.64;1667995;83;21208;-59
2022/07/25 04:12:48;;;;;;;10.95;7.62;;;;;;;19.31;72.22;100116.09;1684196;82;21220;-57
2022/07/25 04:15:55;;;;;;;10.68;8.35;;;;;;;19.31;72.28;100116.09;1725572;81;21220;-60
2022/07/25 04:19:02;;;;;;;9.20;7.80;;;;;;;19.35;72.38;100115.08;1740173;82;21205;-56
2022/07/25 04:22:08;;;;;;;9.60;8.55;;;;;;;19.42;72.46;100119.99;1726594;80;21224;-58
2022/07/25 04:25:16;;;;;;;12.05;8.30;;;;;;;19.48;72.49;100126.50;1749628;81;21257;-60
2022/07/25 04:28:24;;;;;;;10.58;8.23;;;;;;;19.53;72.51;100123.86;1726093;82;21285;-57
2022/07/25 04:31:35;;;;;;;8.88;7.97;;;;;;;19.56;72.54;100121.98;1728447;82;21282;-59
2022/07/25 04:34:43;;;;;;;9.43;8.33;;;;;;;19.60;72.59;100129.59;1729936;81;21328;-60
2022/07/25 04:37:52;;;;;;;10.63;8.38;;;;;;;19.66;72.63;100125.02;1726775;81;21249;-59
2022/07/25 04:41:00;;;;;;;10.93;8.68;;;;;;;19.69;72.64;100128.70;1734522;81;21257;-58
2022/07/25 04:44:07;;;;;;;9.73;8.10;;;;;;;19.75;72.73;100122.18;1731927;81;21276;-59
2022/07/25 04:47:13;;;;;;;10.70;8.10;;;;;;;19.79;72.74;100122.84;1724204;81;21248;-57
2022/07/25 04:50:20;;;;;;;10.10;8.80;;;;;;;19.78;72.66;100127.25;1732812;82;21201;-59
2022/07/25 04:53:28;;;;;;;11.55;8.58;;;;;;;19.76;72.73;100126.63;1733565;81;21240;-60
2022/07/25 04:56:36;;;;;;;9.83;8.38;;;;;;;19.74;72.79;100122.71;1725396;81;21260;-58
2022/07/25 04:59:44;;;;;;;10.35;8.90;;;;;;;19.76;72.92;100123.86;1738094;81;21337;-59
2022/07/25 05:02:52;;;;;;;9.83;8.70;;;;;;;19.80;73.03;100123.16;1741519;81;21256;-58
2022/07/25 05:06:08;;;;;;;10.43;9.20;;;;;;;19.80;73.05;100108.41;1741148;82;21196;-57
2022/07/25 05:09:15;;;;;;;9.48;8.30;;;;;;;19.80;73.15;100104.25;1717125;81;21749;-58
2022/07/25 05:12:23;;;;;;;9.73;8.35;;;;;;;19.81;73.18;100111.48;1741272;82;21200;-58
2022/07/25 05:15:28;;;;;;;9.53;8.55;;;;;;;19.81;73.23;100104.53;1712324;82;21236;-59
2022/07/25 05:18:35;;;;;;;13.58;8.50;;;;;;;19.81;73.24;100118.42;1741021;82;21832;-59
2022/07/25 05:21:42;;;;;;;10.25;9.25;;;;;;;19.82;73.30;100122.92;1730446;82;21176;-59
2022/07/25 05:24:47;;;;;;;9.50;8.18;;;;;;;19.84;73.39;100117.94;1741262;82;21181;-60
2022/07/25 05:27:57;;;;;;;11.50;8.50;;;;;;;19.86;73.49;100112.45;1717397;82;21184;-59
2022/07/25 05:31:06;;;;;;;10.63;8.93;;;;;;;19.90;73.55;100119.77;1738992;82;21813;-59
2022/07/25 05:34:17;;;;;;;11.28;8.73;;;;;;;19.93;73.54;100115.94;1730758;81;21259;-58
2022/07/25 05:37:23;;;;;;;11.03;8.70;;;;;;;19.96;73.63;100125.21;1739146;82;21156;-58
2022/07/25 05:40:29;;;;;;;9.43;8.45;;;;;;;19.99;73.70;100121.09;1703991;82;21255;-58
2022/07/25 05:43:35;;;;;;;12.33;8.55;;;;;;;20.01;73.68;100116.96;1704945;84;21193;-58
2022/07/25 05:46:42;;;;;;;11.25;9.00;;;;;;;20.06;73.64;100110.70;1684838;83;21216;-59
2022/07/25 05:49:53;;;;;;;10.63;8.90;;;;;;;20.09;73.64;100106.86;1698698;82;21189;-58
2022/07/25 05:52:59;;;;;;;10.90;9.75;;;;;;;20.13;73.67;100110.86;1723926;82;21213;-59
2022/07/25 05:56:05;;;;;;;10.10;9.05;;;;;;;20.19;73.71;100097.94;1713498;81;21422;-59
2022/07/25 05:59:14;;;;;;;10.28;9.18;;;;;;;20.25;73.76;100098.34;1719513;82;21234;-59
2022/07/25 06:02:22;;;;;;;10.65;9.35;;;;;;;20.33;73.76;100096.56;1721160;81;21204;-59
2022/07/25 06:05:30;;;;;;;10.15;9.08;;;;;;;20.41;73.83;100097.04;1712105;81;21228;-57
2022/07/25 06:08:36;;;;;;;11.88;9.15;;;;;;;20.51;73.84;100088.91;1683227;83;21226;-58
2022/07/25 06:11:45;;;;;;;11.63;9.08;;;;;;;20.65;73.93;100075.54;1699539;81;21272;-58
2022/07/25 06:15:18;;;;;;;11.73;9.40;;;;;;;20.88;73.96;100067.09;1703038;83;21224;-58
2022/07/25 06:18:25;;;;;;;11.15;8.90;;;;;;;21.10;73.89;100069.48;1829913;77;21208;-59
2022/07/25 06:21:31;;;;;;;10.25;9.15;;;;;;;21.29;73.73;100080.67;1833693;78;21200;-59
2022/07/25 06:24:36;;;;;;;10.45;8.85;;;;;;;21.37;73.56;100078.00;1827515;78;21212;-59
2022/07/25 06:27:41;;;;;;;10.58;8.50;;;;;;;21.34;73.39;100079.37;1836414;78;21204;-58
2022/07/25 06:30:51;;;;;;;10.23;9.18;;;;;;;21.31;73.42;100075.67;1812022;78;21717;-58
2022/07/25 06:33:57;;;;;;;12.68;9.53;;;;;;;21.30;73.43;100085.13;1804178;79;21645;-59
2022/07/25 06:37:05;;;;;;;9.78;8.80;;;;;;;21.27;73.51;100079.22;1804610;79;21263;-59
2022/07/25 06:40:11;;;;;;;10.25;8.68;;;;;;;21.24;73.54;100081.11;1823254;76;21164;-59
2022/07/25 06:43:19;;;;;;;9.13;8.25;;;;;;;21.21;73.61;100085.80;1811015;78;21361;-57
2022/07/25 06:46:30;;;;;;;9.78;8.78;;;;;;;21.19;73.67;100085.20;1832783;78;21177;-58
2022/07/25 06:49:38;;;;;;;13.20;8.83;;;;;;;21.20;73.77;100096.08;1805002;79;21529;-58
2022/07/25 06:52:49;;;;;;;10.72;8.65;;;;;;;21.21;73.82;100089.44;1821830;78;21202;-58
2022/07/25 06:55:56;;;;;;;9.70;8.58;;;;;;;21.23;73.90;100092.80;1809115;77;21401;-57
2022/07/25 06:59:05;;;;;;;10.15;9.10;;;;;;;21.23;73.87;100095.58;1820779;78;21834;-57
2022/07/25 07:02:11;;;;;;;10.60;8.55;;;;;;;21.22;73.89;100098.08;1828925;78;21209;-58
2022/07/25 07:05:18;;;;;;;9.80;8.78;;;;;;;21.23;73.99;100096.97;1802505;79;21378;-58
2022/07/25 07:08:26;;;;;;;12.28;8.88;;;;;;;21.22;74.03;100099.47;1827728;78;21192;-58
2022/07/25 07:11:38;;;;;;;10.75;8.68;;;;;;;21.21;74.05;100097.80;1843833;76;21761;-59
2022/07/25 07:14:44;;;;;;;9.78;7.90;;;;;;;21.22;74.21;100106.42;1836647;76;21251;-58
2022/07/25 07:17:50;;;;;;;9.30;8.23;;;;;;;21.24;74.28;100099.22;1804728;78;21192;-58
2022/07/25 07:20:57;;;;;;;10.55;8.80;;;;;;;21.32;74.36;100107.16;1832234;78;21167;-58
2022/07/25 07:24:06;;;;;;;9.13;8.23;;;;;;;21.36;74.33;100113.92;1820425;76;22014;-59
2022/07/25 07:27:15;;;;;;;9.45;8.45;;;;;;;21.35;74.29;100113.07;1834153;78;21204;-57
2022/07/25 07:30:21;;;;;;;10.38;8.83;;;;;;;21.32;74.36;100111.33;1809286;78;21184;-57
2022/07/25 07:33:33;;;;;;;10.43;9.10;;;;;;;21.31;74.43;100110.48;1826974;78;21181;-56
2022/07/25 07:36:41;;;;;;;10.72;9.63;;;;;;;21.30;74.44;100113.52;1750133;80;21241;-58
2022/07/25 07:39:49;;;;;;;9.95;8.95;;;;;;;21.26;74.47;100109.02;1730692;81;21228;-57
2022/07/25 07:43:05;;;;;;;12.03;9.43;;;;;;;21.23;74.50;100105.33;1758597;81;21233;-58
2022/07/25 07:46:12;;;;;;;12.28;10.50;;;;;;;21.23;74.60;100110.89;1765362;81;21198;-57
2022/07/25 07:49:19;;;;;;;11.68;10.48;;;;;;;21.29;74.71;100114.63;1836863;78;21249;-58
2022/07/25 07:52:26;;;;;;;13.00;10.20;;;;;;;21.31;74.71;100109.66;1798345;78;21745;-59
2022/07/25 07:55:43;;;;;;;12.20;10.65;;;;;;;21.37;74.77;100102.53;1800645;79;21334;-59
2022/07/25 07:58:51;;;;;;;10.03;9.03;;;;;;;21.49;74.88;100104.67;1812507;78;21158;-55
2022/07/25 08:01:56;;;;;;;9.75;8.75;;;;;;;21.64;74.96;100102.15;1828088;78;21204;-57
2022/07/25 08:05:07;;;;;;;9.50;8.50;;;;;;;21.83;74.94;100099.42;1827113;78;21215;-57
2022/07/25 08:08:14;;;;;;;8.33;7.53;;;;;;;22.03;74.84;100089.95;1834756;78;21182;-56
2022/07/25 08:11:22;;;;;;;8.78;7.87;;;;;;;22.29;74.87;100095.86;1824972;77;21162;-56
2022/07/25 08:14:28;;;;;;;8.30;7.45;;;;;;;22.58;74.76;100086.23;1827626;78;22083;-57
2022/07/25 08:17:35;;;;;;;7.83;7.03;;;;;;;22.83;74.56;100101.87;1826859;77;21722;-56
2022/07/25 08:20:42;;;;;;;10.35;7.97;;;;;;;23.09;74.48;100095.42;1835279;77;21184;-56
2022/07/25 08:23:48;;;;;;;9.28;7.80;;;;;;;23.29;74.27;100091.48;1825738;77;21935;-56
2022/07/25 08:26:54;;;;;;;9.88;7.83;;;;;;;23.39;74.03;100101.33;1828974;78;21186;-57
2022/07/25 08:30:00;;;;;;;9.45;8.45;;;;;;;23.39;73.86;100094.34;1828130;77;21141;-57
2022/07/25 08:33:12;;;;;;;9.30;7.95;;;;;;;23.45;73.84;100101.11;1824013;78;21187;-56
2022/07/25 08:36:18;;;;;;;8.70;7.80;;;;;;;23.52;73.83;100105.94;1785284;79;21220;-55
2022/07/25 08:39:26;;;;;;;9.00;6.80;;;;;;;23.59;73.77;100097.33;1788861;79;21200;-59
2022/07/25 08:42:31;;;;;;;7.90;7.10;;;;;;;23.71;73.81;100096.57;1790333;80;21845;-57
2022/07/25 08:45:38;;;;;;;8.63;7.10;;;;;;;23.83;73.74;100098.64;1794211;80;21690;-57
2022/07/25 08:48:44;;;;;;;7.37;6.67;;;;;;;24.04;73.71;100104.66;1770029;78;21805;-55
2022/07/25 08:51:51;;;;;;;6.78;5.58;;;;;;;24.15;73.55;100110.60;1810566;78;21216;-56
2022/07/25 08:54:59;;;;;;;8.03;5.90;;;;;;;24.26;73.54;100108.14;1812611;79;21239;-58
2022/07/25 08:58:07;;;;;;;7.00;6.30;;;;;;;24.27;73.20;100107.59;1817710;78;21250;-56
2022/07/25 09:01:12;;;;;;;6.65;6.05;;;;;;;24.19;73.03;100096.92;1795651;79;21581;-57
2022/07/25 09:04:18;;;;;;;6.80;5.58;;;;;;;24.13;72.98;100099.41;1802758;79;21235;-57
2022/07/25 09:07:28;;;;;;;6.87;6.03;;;;;;;24.06;73.08;100103.84;1806775;78;21322;-56
2022/07/25 09:10:35;;;;;;;6.70;5.97;;;;;;;24.10;73.08;100093.78;1798087;79;21204;-58
2022/07/25 09:13:42;;;;;;;7.15;5.67;;;;;;;24.17;73.20;100088.80;1797958;79;21177;-58
2022/07/25 09:16:49;;;;;;;7.17;5.70;;;;;;;24.24;73.12;100083.81;1799277;79;21209;-58
2022/07/25 09:20:03;;;;;;;7.00;5.20;;;;;;;24.29;73.15;100085.21;1800089;79;21725;-58
2022/07/25 09:23:12;;;;;;;6.40;5.00;;;;;;;24.37;73.16;100086.09;1799454;79;21205;-59
2022/07/25 09:26:20;;;;;;;5.97;5.12;;;;;;;24.48;73.01;100082.22;1808116;76;21528;-58
2022/07/25 09:29:33;;;;;;;7.45;5.05;;;;;;;24.53;72.89;100085.05;1789130;79;21157;-57
2022/07/25 09:32:37;;;;;;;6.45;4.65;;;;;;;24.69;73.11;100071.42;1798754;79;21204;-59
2022/07/25 09:36:09;;;;;;;5.80;4.62;;;;;;;24.92;72.97;100076.54;1795742;79;21227;-57
2022/07/25 09:39:16;;;;;;;5.87;4.80;;;;;;;25.08;72.78;100063.95;1822343;78;21189;-56
2022/07/25 09:42:36;;;;;;;6.80;5.05;;;;;;;25.24;72.71;100064.24;1822441;77;21200;-56
2022/07/25 09:45:38;;;;;;;4.55;4.08;;;;;;;25.30;72.59;100068.17;1787529;80;21354;-56
2022/07/25 09:48:46;;;;;;;6.20;4.62;;;;;;;25.24;72.43;100071.25;1788681;79;21335;-56
2022/07/25 09:51:55;;;;;;;5.37;4.78;;;;;;;25.11;72.29;100077.39;1788793;79;21224;-59
2022/07/25 09:55:09;;;;;;;5.53;5.03;;;;;;;24.95;72.33;100072.33;1789698;78;21296;-60
2022/07/25 09:58:17;;;;;;;7.43;5.30;;;;;;;24.68;72.34;100078.70;1779229;79;21557;-59
2022/07/25 10:01:26;;;;;;;7.75;5.78;;;;;;;24.43;72.62;100080.83;1808897;78;21377;-59
2022/07/25 10:04:47;;;;;;;11.97;10.23;;;;;;;24.35;72.93;100077.70;1805669;77;21794;-58
2022/07/25 10:07:58;;;;;;;8.15;6.40;;;;;;;24.33;73.02;100078.52;1801721;79;21342;-60
2022/07/25 10:11:07;;;;;;;9.55;8.20;;;;;;;24.32;73.12;100079.09;1808060;79;21723;-61
2022/07/25 10:14:18;;;;;;;5.78;5.17;;;;;;;24.50;73.42;100065.15;1798763;79;21480;-58
2022/07/25 10:17:32;;;;;;;5.50;4.92;;;;;;;24.78;73.63;100067.53;1798968;79;21197;-59
2022/07/25 10:20:38;;;;;;;5.12;4.35;;;;;;;25.08;73.61;100063.39;1823653;77;21177;-58
2022/07/25 10:23:45;;;;;;;4.53;4.10;;;;;;;25.25;73.23;100071.52;1820035;79;21177;-58
2022/07/25 10:26:59;;;;;;;5.65;4.70;;;;;;;25.10;72.77;100074.32;1819977;78;21800;-58
2022/07/25 10:30:08;;;;;;;7.47;4.22;;;;;;;25.05;72.67;100068.16;1820796;78;21869;-58
2022/07/25 10:33:24;;;;;;;5.33;4.37;;;;;;;25.03;72.62;100062.83;1754762;79;21201;-59
2022/07/25 10:36:38;;;;;;;4.97;3.40;;;;;;;25.18;72.88;100073.77;1781072;80;21209;-61
2022/07/25 10:39:45;;;;;;;4.58;3.20;;;;;;;25.50;73.01;100067.37;1788437;80;21777;-60
2022/07/25 10:42:53;;;;;;;2.40;2.10;;;;;;;25.77;72.90;100069.29;1789258;79;21719;-60
2022/07/25 10:46:04;;;;;;;4.37;2.42;;;;;;;25.89;72.55;100068.45;1788749;79;21726;-61
2022/07/25 10:49:13;;;;;;;3.25;2.20;;;;;;;25.84;72.08;100071.26;1817481;78;21321;-62
2022/07/25 10:52:26;;;;;;;2.98;2.47;;;;;;;25.73;71.86;100075.20;1814704;77;21212;-61
2022/07/25 10:55:35;;;;;;;2.92;2.60;;;;;;;25.53;71.66;100071.02;1819566;78;21738;-61
2022/07/25 10:59:05;;;;;;;2.42;2.22;;;;;;;25.47;71.71;100062.30;1780440;79;21185;-62
2022/07/25 11:02:17;;;;;;;1.70;1.57;;;;;;;25.46;71.84;100064.29;1796665;79;21212;-60
2022/07/25 11:05:28;;;;;;;1.80;1.50;;;;;;;25.50;71.87;100055.58;1804026;79;21536;-61
2022/07/25 11:08:40;;;;;;;1.65;1.47;;;;;;;25.51;71.84;100056.44;1800979;79;21586;-60
2022/07/25 11:11:51;;;;;;;1.67;1.30;;;;;;;25.62;72.01;100058.11;1821411;78;21887;-60
2022/07/25 11:15:10;;;;;;;1.02;1.02;;;;;;;25.71;72.00;100064.81;1794755;78;21173;-60
2022/07/25 11:18:24;;;;;;;6.40;5.08;;;;;;;25.78;71.82;100052.77;1789356;79;21339;-61
2022/07/25 11:21:32;;;;;;;2.30;2.10;;;;;;;25.78;71.62;100059.19;1790218;79;21726;-60
2022/07/25 11:24:48;;;;;;;2.92;2.62;;;;;;;25.69;71.47;100053.06;1788539;80;21770;-58
2022/07/25 11:28:04;;;;;;;4.95;2.20;;;;;;;25.53;71.52;100047.19;1799944;79;21180;-58
2022/07/25 11:31:13;;;;;;;3.47;3.10;;;;;;;25.45;71.61;100042.14;1791850;77;21327;-59
2022/07/25 11:34:20;;;;;;;4.78;3.95;;;;;;;25.41;71.69;100029.80;1806507;78;21181;-60
2022/07/25 11:37:25;;;;;;;5.97;5.37;;;;;;;25.47;71.66;100031.47;1803879;78;21623;-60
2022/07/25 11:40:33;;;;;;;7.83;6.30;;;;;;;25.46;71.55;100032.61;1800945;77;21248;-60
2022/07/25 11:43:40;;;;;;;6.95;6.15;;;;;;;25.36;71.47;100031.20;1801859;79;21577;-60
2022/07/25 11:46:53;;;;;;;7.60;6.47;;;;;;;25.34;71.56;100032.06;1808887;78;21185;-59
2022/07/25 11:50:01;;;;;;;9.30;7.00;;;;;;;25.30;71.60;100033.69;1807898;78;21264;-59
2022/07/25 11:53:16;;;;;;;7.35;5.95;;;;;;;25.34;71.79;100022.25;1787603;79;21216;-60
2022/07/25 11:56:30;;;;;;;6.05;5.17;;;;;;;25.42;71.87;100019.70;1790343;79;21204;-59
2022/07/25 11:59:40;;;;;;;7.72;4.92;;;;;;;25.36;71.62;100018.03;1797223;78;21738;-57
2022/07/25 12:02:51;;;;;;;8.15;5.12;;;;;;;25.14;71.52;100029.20;1787250;80;21209;-55
2022/07/25 12:05:59;;;;;;;7.10;5.17;;;;;;;24.78;71.46;100029.16;1788760;79;21903;-58
2022/07/25 12:09:22;;;;;;;5.58;4.72;;;;;;;24.47;71.92;100015.33;1755844;80;21251;-58
2022/07/25 12:12:22;;;;;;;5.53;4.58;;;;;;;24.29;72.12;100009.66;1741773;81;21213;-59
2022/07/25 12:15:34;;;;;;;5.10;4.30;;;;;;;24.12;72.26;100014.64;1820885;78;21222;-59
2022/07/25 12:18:42;;;;;;;5.37;4.28;;;;;;;24.07;72.60;100004.00;1820971;78;21177;-56
2022/07/25 12:21:53;;;;;;;5.37;4.45;;;;;;;24.10;72.93;100014.06;1809079;78;21879;-57
2022/07/25 12:25:44;;;;;;;5.08;4.53;;;;;;;24.20;73.33;99996.48;1769776;78;21714;-57
2022/07/25 12:28:55;;;;;;;5.10;4.53;;;;;;;24.44;73.64;100002.73;1805552;79;21425;-56
2022/07/25 12:32:08;;;;;;;5.20;4.70;;;;;;;24.60;73.51;100002.21;1809053;78;21188;-56
2022/07/25 12:35:21;;;;;;;4.92;4.42;;;;;;;24.76;73.57;99999.21;1819002;78;21394;-55
2022/07/25 12:38:30;;;;;;;6.80;5.10;;;;;;;24.91;73.39;99997.81;1760517;80;21284;-55
2022/07/25 12:41:40;;;;;;;8.33;4.58;;;;;;;24.84;72.95;99998.66;1764997;80;21201;-56
2022/07/25 12:44:49;;;;;;;5.80;4.37;;;;;;;24.67;72.67;99992.45;1753997;81;21286;-57
2022/07/25 12:48:01;;;;;;;5.95;4.47;;;;;;;24.62;72.76;99999.98;1809178;78;21236;-58
2022/07/25 12:51:12;;;;;;;3.35;3.05;;;;;;;24.59;72.68;99995.77;1716395;81;21207;-55
2022/07/25 12:54:23;;;;;;;5.70;2.90;;;;;;;24.57;72.66;99984.58;1799036;78;21235;-55
2022/07/25 12:57:33;;;;;;;2.50;2.25;;;;;;;24.70;73.01;99991.08;1785397;79;21255;-56
2022/07/25 13:00:40;;;;;;;2.45;1.92;;;;;;;24.88;72.87;99989.12;1818910;78;21383;-55
2022/07/25 13:03:46;;;;;;;2.08;1.87;;;;;;;25.09;72.93;99989.42;1817018;78;21332;-55
2022/07/25 13:06:55;;;;;;;2.27;1.37;;;;;;;25.29;72.72;100006.22;1820073;79;21249;-55
2022/07/25 13:09:55;;;;;;;1.62;1.37;;;;;;;25.27;72.33;100013.24;1820422;79;21166;-57
2022/07/25 13:12:49;;;;;;;1.62;1.42;;;;;;;25.06;71.85;99995.59;1819457;79;21358;-56
2022/07/25 13:16:01;;;;;;;1.42;1.27;;;;;;;24.91;71.90;99995.02;1798698;77;21157;-57
2022/07/25 13:19:13;;;;;;;1.87;1.77;;;;;;;24.95;72.22;99991.95;1807774;78;21169;-53
2022/07/25 13:22:22;;;;;;;1.55;1.45;;;;;;;25.13;72.21;100009.32;1820701;79;21244;-53
2022/07/25 13:25:30;;;;;;;2.62;1.72;;;;;;;25.10;71.93;99998.68;1818497;78;21735;-57
2022/07/25 13:28:40;;;;;;;1.55;1.45;;;;;;;25.07;71.83;100006.24;1811733;77;21177;-57
2022/07/25 13:31:48;;;;;;;3.65;1.67;;;;;;;24.98;71.70;100017.16;1810513;77;21707;-57
2022/07/25 13:35:07;;;;;;;2.75;2.00;;;;;;;24.97;71.59;100017.70;1860529;76;28432;-57
2022/07/25 13:38:19;;;;;;;1.98;1.80;;;;;;;24.98;71.55;100017.16;1799626;78;21225;-55
2022/07/25 13:41:28;;;;;;;2.95;1.85;;;;;;;25.05;71.46;100008.74;1790126;79;21197;-59
2022/07/25 13:44:44;;;;;;;2.90;2.47;;;;;;;25.00;71.28;100012.12;1798756;79;21693;-56
2022/07/25 13:47:54;;;;;;;3.58;2.83;;;;;;;24.77;71.11;100021.88;1802524;79;21733;-56
2022/07/25 13:51:02;;;;;;;3.42;3.05;;;;;;;24.46;71.03;100020.10;1786925;79;21682;-56
2022/07/25 13:54:11;;;;;;;3.95;3.50;;;;;;;24.25;71.25;100018.34;1798265;79;21224;-56
2022/07/25 13:57:18;;;;;;;4.62;3.37;;;;;;;24.28;71.63;100007.14;1791357;79;21742;-54
2022/07/25 14:00:28;;;;;;;4.22;3.85;;;;;;;24.54;71.87;100011.17;1802719;78;21185;-59
2022/07/25 14:03:39;;;;;;;6.50;4.35;;;;;;;24.63;71.64;100008.11;1802724;79;21224;-60
2022/07/25 14:06:50;;;;;;;4.60;4.20;;;;;;;24.54;71.35;100005.58;1804405;79;21228;-58
2022/07/25 14:09:57;;;;;;;7.80;4.50;;;;;;;24.51;71.51;99996.88;1804050;79;21216;-60
2022/07/25 14:13:05;;;;;;;5.72;4.60;;;;;;;24.57;71.61;99998.02;1784363;79;21693;-59
2022/07/25 14:16:17;;;;;;;4.80;4.35;;;;;;;24.67;71.60;100005.05;1772623;81;21251;-59
2022/07/25 14:19:23;;;;;;;6.90;5.03;;;;;;;24.76;71.60;100001.16;1787779;79;21709;-60
2022/07/25 14:22:32;;;;;;;6.47;5.12;;;;;;;24.84;71.53;100009.87;1805034;78;21812;-58
2022/07/25 14:25:43;;;;;;;5.42;4.92;;;;;;;24.80;71.19;100005.92;1778266;79;21355;-56
2022/07/25 14:28:50;;;;;;;5.37;4.65;;;;;;;24.82;71.22;99998.64;1745710;81;21574;-58
2022/07/25 14:32:00;;;;;;;7.83;5.08;;;;;;;24.97;71.32;100016.88;1790953;79;21229;-57